sensor_id;sensor_type;location;lat;lon;timestamp;temperature;humidity
15707;DHT22;7953;54.302;10.128;2023-02-11T00:01:05;5.70;99.90
15707;DHT22;7953;54.302;10.128;2023-02-11T00:03:32;5.70;99.90
15707;DHT22;7953;54.302;10.128;2023-02-11T00:06:00;5.70;99.90
15707;DHT22;7953;54.302;10.128;2023-02-11T00:08:27;5.70;99.90
15707;DHT22;7953;54.302;10.128;2023-02-11T00:10:55;5.80;99.90
15707;DHT22;7953;54.302;10.128;2023-02-11T00:13:24;5.80;99.90
15707;DHT22;7953;54.302;10.128;2023-02-11T00:15:51;5.80;99.90
15707;DHT22;7953;54.302;10.128;2023-02-11T00:18:19;5.80;99.90
15707;DHT22;7953;54.302;10.128;2023-02-11T00:20:46;5.80;99.90
15707;DHT22;7953;54.302;10.128;2023-02-11T00:23:13;5.80;99.90
15707;DHT22;7953;54.302;10.128;2023-02-11T00:25:40;5.80;99.90
15707;DHT22;7953;54.302;10.128;2023-02-11T00:28:08;5.80;99.90
15707;DHT22;7953;54.302;10.128;2023-02-11T00:30:36;5.80;99.90
15707;DHT22;7953;54.302;10.128;2023-02-11T00:33:03;5.80;99.90
15707;DHT22;7953;54.302;10.128;2023-02-11T00:35:30;5.80;99.90
15707;DHT22;7953;54.302;10.128;2023-02-11T00:37:57;5.90;99.90
15707;DHT22;7953;54.302;10.128;2023-02-11T00:40:24;5.80;99.90
15707;DHT22;7953;54.302;10.128;2023-02-11T00:42:51;5.90;99.90
15707;DHT22;7953;54.302;10.128;2023-02-11T00:45:18;5.90;99.90
15707;DHT22;7953;54.302;10.128;2023-02-11T00:47:47;5.90;99.90
15707;DHT22;7953;54.302;10.128;2023-02-11T00:50:14;5.90;99.90
15707;DHT22;7953;54.302;10.128;2023-02-11T00:52:41;5.90;99.90
15707;DHT22;7953;54.302;10.128;2023-02-11T00:55:09;5.90;99.90
15707;DHT22;7953;54.302;10.128;2023-02-11T00:57:36;5.90;99.90
15707;DHT22;7953;54.302;10.128;2023-02-11T01:00:04;6.00;99.90
15707;DHT22;7953;54.302;10.128;2023-02-11T01:02:31;6.00;99.90
15707;DHT22;7953;54.302;10.128;2023-02-11T01:04:59;6.10;99.90
15707;DHT22;7953;54.302;10.128;2023-02-11T01:07:27;6.10;99.90
15707;DHT22;7953;54.302;10.128;2023-02-11T01:09:56;6.10;99.90
15707;DHT22;7953;54.302;10.128;2023-02-11T01:12:23;6.10;99.90
15707;DHT22;7953;54.302;10.128;2023-02-11T01:14:50;6.10;99.90
15707;DHT22;7953;54.302;10.128;2023-02-11T01:17:17;6.10;99.90
15707;DHT22;7953;54.302;10.128;2023-02-11T01:19:44;6.10;99.90
15707;DHT22;7953;54.302;10.128;2023-02-11T01:22:13;6.10;99.90
15707;DHT22;7953;54.302;10.128;2023-02-11T01:24:40;6.10;99.90
15707;DHT22;7953;54.302;10.128;2023-02-11T01:27:07;6.10;99.90
15707;DHT22;7953;54.302;10.128;2023-02-11T01:29:34;6.20;99.90
15707;DHT22;7953;54.302;10.128;2023-02-11T01:32:01;6.20;99.90
15707;DHT22;7953;54.302;10.128;2023-02-11T01:34:28;6.20;99.90
15707;DHT22;7953;54.302;10.128;2023-02-11T01:36:56;6.30;99.90
15707;DHT22;7953;54.302;10.128;2023-02-11T01:39:26;6.30;99.90
15707;DHT22;7953;54.302;10.128;2023-02-11T01:41:53;6.30;99.90
15707;DHT22;7953;54.302;10.128;2023-02-11T01:44:24;6.30;99.90
15707;DHT22;7953;54.302;10.128;2023-02-11T01:46:52;6.30;99.90
15707;DHT22;7953;54.302;10.128;2023-02-11T01:49:22;6.30;99.90
15707;DHT22;7953;54.302;10.128;2023-02-11T01:51:53;6.40;99.90
15707;DHT22;7953;54.302;10.128;2023-02-11T01:54:25;6.40;99.90
15707;DHT22;7953;54.302;10.128;2023-02-11T01:57:14;6.40;99.90
15707;DHT22;7953;54.302;10.128;2023-02-11T01:59:53;6.40;99.90
15707;DHT22;7953;54.302;10.128;2023-02-11T02:02:26;6.40;99.90
15707;DHT22;7953;54.302;10.128;2023-02-11T02:04:59;6.40;99.90
15707;DHT22;7953;54.302;10.128;2023-02-11T02:07:31;6.40;99.90
15707;DHT22;7953;54.302;10.128;2023-02-11T02:10:05;6.50;99.90
15707;DHT22;7953;54.302;10.128;2023-02-11T02:12:33;6.40;99.90
15707;DHT22;7953;54.302;10.128;2023-02-11T02:15:21;6.40;99.90
15707;DHT22;7953;54.302;10.128;2023-02-11T02:17:56;6.40;99.90
15707;DHT22;7953;54.302;10.128;2023-02-11T02:20:44;6.40;99.90
15707;DHT22;7953;54.302;10.128;2023-02-11T02:23:29;6.40;99.90
15707;DHT22;7953;54.302;10.128;2023-02-11T02:26:45;6.50;99.90
15707;DHT22;7953;54.302;10.128;2023-02-11T02:29:35;6.40;99.90
15707;DHT22;7953;54.302;10.128;2023-02-11T02:35:18;6.50;99.90
15707;DHT22;7953;54.302;10.128;2023-02-11T02:37:54;6.50;99.90
15707;DHT22;7953;54.302;10.128;2023-02-11T02:40:26;6.50;99.90
15707;DHT22;7953;54.302;10.128;2023-02-11T02:42:55;6.60;99.90
15707;DHT22;7953;54.302;10.128;2023-02-11T02:45:23;6.60;99.90
15707;DHT22;7953;54.302;10.128;2023-02-11T02:47:50;6.60;99.90
15707;DHT22;7953;54.302;10.128;2023-02-11T02:50:25;6.60;99.90
15707;DHT22;7953;54.302;10.128;2023-02-11T02:53:08;6.60;99.90
15707;DHT22;7953;54.302;10.128;2023-02-11T02:55:47;6.60;99.90
15707;DHT22;7953;54.302;10.128;2023-02-11T02:58:36;6.60;99.90
15707;DHT22;7953;54.302;10.128;2023-02-11T03:01:12;6.60;99.90
15707;DHT22;7953;54.302;10.128;2023-02-11T03:03:47;6.60;99.90
15707;DHT22;7953;54.302;10.128;2023-02-11T03:06:25;6.60;99.90
15707;DHT22;7953;54.302;10.128;2023-02-11T03:08:59;6.60;99.90
15707;DHT22;7953;54.302;10.128;2023-02-11T03:11:28;6.60;99.90
15707;DHT22;7953;54.302;10.128;2023-02-11T03:13:55;6.70;99.90
15707;DHT22;7953;54.302;10.128;2023-02-11T03:16:25;6.70;99.90
15707;DHT22;7953;54.302;10.128;2023-02-11T03:18:56;6.70;99.90
15707;DHT22;7953;54.302;10.128;2023-02-11T03:21:26;6.70;99.90
15707;DHT22;7953;54.302;10.128;2023-02-11T03:23:56;6.70;99.90
15707;DHT22;7953;54.302;10.128;2023-02-11T03:26:29;6.70;99.90
15707;DHT22;7953;54.302;10.128;2023-02-11T03:29:03;6.70;99.90
15707;DHT22;7953;54.302;10.128;2023-02-11T03:31:38;6.70;99.90
15707;DHT22;7953;54.302;10.128;2023-02-11T03:34:12;6.70;99.90
15707;DHT22;7953;54.302;10.128;2023-02-11T03:36:45;6.70;99.90
15707;DHT22;7953;54.302;10.128;2023-02-11T03:39:18;6.70;99.90
15707;DHT22;7953;54.302;10.128;2023-02-11T03:41:47;6.70;99.90
15707;DHT22;7953;54.302;10.128;2023-02-11T03:44:16;6.80;99.90
15707;DHT22;7953;54.302;10.128;2023-02-11T03:46:47;6.80;99.90
15707;DHT22;7953;54.302;10.128;2023-02-11T03:49:17;6.80;99.90
15707;DHT22;7953;54.302;10.128;2023-02-11T03:51:48;6.80;99.90
15707;DHT22;7953;54.302;10.128;2023-02-11T03:54:19;6.80;99.90
15707;DHT22;7953;54.302;10.128;2023-02-11T03:56:50;6.90;99.90
15707;DHT22;7953;54.302;10.128;2023-02-11T03:59:18;6.90;99.90
15707;DHT22;7953;54.302;10.128;2023-02-11T04:01:45;6.90;99.90
15707;DHT22;7953;54.302;10.128;2023-02-11T04:04:12;7.00;99.90
15707;DHT22;7953;54.302;10.128;2023-02-11T04:06:39;7.10;99.90
15707;DHT22;7953;54.302;10.128;2023-02-11T04:09:07;7.00;99.90
15707;DHT22;7953;54.302;10.128;2023-02-11T04:11:34;7.00;99.90
15707;DHT22;7953;54.302;10.128;2023-02-11T04:14:01;7.00;99.90
15707;DHT22;7953;54.302;10.128;2023-02-11T04:16:28;7.10;99.90
15707;DHT22;7953;54.302;10.128;2023-02-11T04:18:55;7.10;99.90
15707;DHT22;7953;54.302;10.128;2023-02-11T04:21:22;7.20;99.90
15707;DHT22;7953;54.302;10.128;2023-02-11T04:23:49;7.20;99.90
15707;DHT22;7953;54.302;10.128;2023-02-11T04:26:17;7.20;99.90
15707;DHT22;7953;54.302;10.128;2023-02-11T04:28:44;7.20;99.90
15707;DHT22;7953;54.302;10.128;2023-02-11T04:31:11;7.20;99.90
15707;DHT22;7953;54.302;10.128;2023-02-11T04:33:38;7.20;99.90
15707;DHT22;7953;54.302;10.128;2023-02-11T04:36:05;7.20;99.90
15707;DHT22;7953;54.302;10.128;2023-02-11T04:38:32;7.20;99.90
15707;DHT22;7953;54.302;10.128;2023-02-11T04:40:59;7.20;99.90
15707;DHT22;7953;54.302;10.128;2023-02-11T04:43:27;7.20;99.90
15707;DHT22;7953;54.302;10.128;2023-02-11T04:45:56;7.30;99.90
15707;DHT22;7953;54.302;10.128;2023-02-11T04:48:23;7.30;99.90
15707;DHT22;7953;54.302;10.128;2023-02-11T04:50:50;7.20;99.90
15707;DHT22;7953;54.302;10.128;2023-02-11T04:53:17;7.30;99.90
15707;DHT22;7953;54.302;10.128;2023-02-11T04:55:44;7.30;99.90
15707;DHT22;7953;54.302;10.128;2023-02-11T04:58:10;7.20;99.90
15707;DHT22;7953;54.302;10.128;2023-02-11T05:00:39;7.20;99.90
15707;DHT22;7953;54.302;10.128;2023-02-11T05:03:05;7.20;99.90
15707;DHT22;7953;54.302;10.128;2023-02-11T05:05:32;7.30;99.90
15707;DHT22;7953;54.302;10.128;2023-02-11T05:07:59;7.30;99.90
15707;DHT22;7953;54.302;10.128;2023-02-11T05:10:26;7.30;99.90
15707;DHT22;7953;54.302;10.128;2023-02-11T05:12:54;7.30;99.90
15707;DHT22;7953;54.302;10.128;2023-02-11T05:15:21;7.30;99.90
15707;DHT22;7953;54.302;10.128;2023-02-11T05:17:49;7.30;99.90
15707;DHT22;7953;54.302;10.128;2023-02-11T05:20:16;7.30;99.90
15707;DHT22;7953;54.302;10.128;2023-02-11T05:22:43;7.30;99.90
15707;DHT22;7953;54.302;10.128;2023-02-11T05:25:10;7.30;99.90
15707;DHT22;7953;54.302;10.128;2023-02-11T05:27:37;7.40;99.90
15707;DHT22;7953;54.302;10.128;2023-02-11T05:30:05;7.30;99.90
15707;DHT22;7953;54.302;10.128;2023-02-11T05:32:32;7.40;99.90
15707;DHT22;7953;54.302;10.128;2023-02-11T05:35:00;7.30;99.90
15707;DHT22;7953;54.302;10.128;2023-02-11T05:37:27;7.30;99.90
15707;DHT22;7953;54.302;10.128;2023-02-11T05:39:54;7.30;99.90
15707;DHT22;7953;54.302;10.128;2023-02-11T05:42:21;7.30;99.90
15707;DHT22;7953;54.302;10.128;2023-02-11T05:44:48;7.30;99.90
15707;DHT22;7953;54.302;10.128;2023-02-11T05:47:15;7.30;99.90
15707;DHT22;7953;54.302;10.128;2023-02-11T05:49:42;7.30;99.90
15707;DHT22;7953;54.302;10.128;2023-02-11T05:52:10;7.30;99.90
15707;DHT22;7953;54.302;10.128;2023-02-11T05:54:37;7.30;99.90
15707;DHT22;7953;54.302;10.128;2023-02-11T05:57:04;7.30;99.90
15707;DHT22;7953;54.302;10.128;2023-02-11T05:59:31;7.30;99.90
15707;DHT22;7953;54.302;10.128;2023-02-11T06:01:58;7.30;99.90
15707;DHT22;7953;54.302;10.128;2023-02-11T06:04:26;7.30;99.90
15707;DHT22;7953;54.302;10.128;2023-02-11T06:06:52;7.30;99.90
15707;DHT22;7953;54.302;10.128;2023-02-11T06:09:21;7.30;99.90
15707;DHT22;7953;54.302;10.128;2023-02-11T06:11:48;7.30;99.90
15707;DHT22;7953;54.302;10.128;2023-02-11T06:14:14;7.40;99.90
15707;DHT22;7953;54.302;10.128;2023-02-11T06:16:41;7.40;99.90
15707;DHT22;7953;54.302;10.128;2023-02-11T06:19:08;7.30;99.90
15707;DHT22;7953;54.302;10.128;2023-02-11T06:21:35;7.40;99.90
15707;DHT22;7953;54.302;10.128;2023-02-11T06:24:02;7.30;99.90
15707;DHT22;7953;54.302;10.128;2023-02-11T06:26:31;7.30;99.90
15707;DHT22;7953;54.302;10.128;2023-02-11T06:28:58;7.40;99.90
15707;DHT22;7953;54.302;10.128;2023-02-11T06:31:25;7.40;99.90
15707;DHT22;7953;54.302;10.128;2023-02-11T06:33:53;7.40;99.90
15707;DHT22;7953;54.302;10.128;2023-02-11T06:36:21;7.40;99.90
15707;DHT22;7953;54.302;10.128;2023-02-11T06:38:49;7.40;99.90
15707;DHT22;7953;54.302;10.128;2023-02-11T06:41:17;7.40;99.90
15707;DHT22;7953;54.302;10.128;2023-02-11T06:43:49;7.40;99.90
15707;DHT22;7953;54.302;10.128;2023-02-11T06:46:18;7.40;99.90
15707;DHT22;7953;54.302;10.128;2023-02-11T06:48:45;7.40;99.90
15707;DHT22;7953;54.302;10.128;2023-02-11T06:51:12;7.40;99.90
15707;DHT22;7953;54.302;10.128;2023-02-11T06:53:42;7.40;99.90
15707;DHT22;7953;54.302;10.128;2023-02-11T06:56:11;7.40;99.90
15707;DHT22;7953;54.302;10.128;2023-02-11T06:58:39;7.40;99.90
15707;DHT22;7953;54.302;10.128;2023-02-11T07:01:09;7.40;99.90
15707;DHT22;7953;54.302;10.128;2023-02-11T07:03:39;7.40;99.90
15707;DHT22;7953;54.302;10.128;2023-02-11T07:06:09;7.40;99.90
15707;DHT22;7953;54.302;10.128;2023-02-11T07:08:37;7.40;99.90
15707;DHT22;7953;54.302;10.128;2023-02-11T07:11:08;7.40;99.90
15707;DHT22;7953;54.302;10.128;2023-02-11T07:13:36;7.40;99.90
15707;DHT22;7953;54.302;10.128;2023-02-11T07:16:05;7.40;99.90
15707;DHT22;7953;54.302;10.128;2023-02-11T07:18:33;7.40;99.90
15707;DHT22;7953;54.302;10.128;2023-02-11T07:21:03;7.50;99.90
15707;DHT22;7953;54.302;10.128;2023-02-11T07:23:30;7.50;99.90
15707;DHT22;7953;54.302;10.128;2023-02-11T07:25:57;7.50;99.90
15707;DHT22;7953;54.302;10.128;2023-02-11T07:28:30;7.50;99.90
15707;DHT22;7953;54.302;10.128;2023-02-11T07:30:57;7.50;99.90
15707;DHT22;7953;54.302;10.128;2023-02-11T07:33:24;7.50;99.90
15707;DHT22;7953;54.302;10.128;2023-02-11T07:35:52;7.50;99.90
15707;DHT22;7953;54.302;10.128;2023-02-11T07:38:21;7.50;99.90
15707;DHT22;7953;54.302;10.128;2023-02-11T07:40:48;7.50;99.90
15707;DHT22;7953;54.302;10.128;2023-02-11T07:43:15;7.50;99.90
15707;DHT22;7953;54.302;10.128;2023-02-11T07:45:41;7.50;99.90
15707;DHT22;7953;54.302;10.128;2023-02-11T07:48:09;7.50;99.90
15707;DHT22;7953;54.302;10.128;2023-02-11T07:50:36;7.60;99.90
15707;DHT22;7953;54.302;10.128;2023-02-11T07:53:04;7.60;99.90
15707;DHT22;7953;54.302;10.128;2023-02-11T07:55:32;7.60;99.90
15707;DHT22;7953;54.302;10.128;2023-02-11T07:57:59;7.60;99.90
15707;DHT22;7953;54.302;10.128;2023-02-11T08:00:26;7.50;99.90
15707;DHT22;7953;54.302;10.128;2023-02-11T08:02:53;7.60;99.90
15707;DHT22;7953;54.302;10.128;2023-02-11T08:05:22;7.60;99.90
15707;DHT22;7953;54.302;10.128;2023-02-11T08:07:50;7.60;99.90
15707;DHT22;7953;54.302;10.128;2023-02-11T08:10:19;7.60;99.90
15707;DHT22;7953;54.302;10.128;2023-02-11T08:12:46;7.60;99.90
15707;DHT22;7953;54.302;10.128;2023-02-11T08:15:13;7.60;99.90
15707;DHT22;7953;54.302;10.128;2023-02-11T08:17:40;7.60;99.90
15707;DHT22;7953;54.302;10.128;2023-02-11T08:20:08;7.60;99.90
15707;DHT22;7953;54.302;10.128;2023-02-11T08:22:37;7.60;99.90
15707;DHT22;7953;54.302;10.128;2023-02-11T08:25:05;7.60;99.90
15707;DHT22;7953;54.302;10.128;2023-02-11T08:27:34;7.60;99.90
15707;DHT22;7953;54.302;10.128;2023-02-11T08:30:01;7.60;99.90
15707;DHT22;7953;54.302;10.128;2023-02-11T08:32:28;7.60;99.90
15707;DHT22;7953;54.302;10.128;2023-02-11T08:34:55;7.60;99.90
15707;DHT22;7953;54.302;10.128;2023-02-11T08:37:22;7.60;99.90
15707;DHT22;7953;54.302;10.128;2023-02-11T08:39:49;7.60;99.90
15707;DHT22;7953;54.302;10.128;2023-02-11T08:42:16;7.70;99.90
15707;DHT22;7953;54.302;10.128;2023-02-11T08:44:44;7.70;99.90
15707;DHT22;7953;54.302;10.128;2023-02-11T08:47:11;7.70;99.90
15707;DHT22;7953;54.302;10.128;2023-02-11T08:49:38;7.70;99.90
15707;DHT22;7953;54.302;10.128;2023-02-11T08:52:06;7.70;99.90
15707;DHT22;7953;54.302;10.128;2023-02-11T08:54:33;7.70;99.90
15707;DHT22;7953;54.302;10.128;2023-02-11T08:57:00;7.70;99.90
15707;DHT22;7953;54.302;10.128;2023-02-11T08:59:27;7.70;99.90
15707;DHT22;7953;54.302;10.128;2023-02-11T09:01:56;7.80;99.90
15707;DHT22;7953;54.302;10.128;2023-02-11T09:04:23;7.80;99.90
15707;DHT22;7953;54.302;10.128;2023-02-11T09:06:50;7.80;99.90
15707;DHT22;7953;54.302;10.128;2023-02-11T09:09:17;7.80;99.90
15707;DHT22;7953;54.302;10.128;2023-02-11T09:11:44;7.80;99.90
15707;DHT22;7953;54.302;10.128;2023-02-11T09:14:16;7.80;99.90
15707;DHT22;7953;54.302;10.128;2023-02-11T09:16:44;7.80;99.90
15707;DHT22;7953;54.302;10.128;2023-02-11T09:19:12;7.80;99.90
15707;DHT22;7953;54.302;10.128;2023-02-11T09:21:39;7.80;99.90
15707;DHT22;7953;54.302;10.128;2023-02-11T09:24:06;7.80;99.90
15707;DHT22;7953;54.302;10.128;2023-02-11T09:26:34;7.80;99.90
15707;DHT22;7953;54.302;10.128;2023-02-11T09:29:02;7.80;99.90
15707;DHT22;7953;54.302;10.128;2023-02-11T09:31:30;7.80;99.90
15707;DHT22;7953;54.302;10.128;2023-02-11T09:33:58;7.80;99.90
15707;DHT22;7953;54.302;10.128;2023-02-11T09:36:28;7.90;99.90
15707;DHT22;7953;54.302;10.128;2023-02-11T09:38:57;7.90;99.90
15707;DHT22;7953;54.302;10.128;2023-02-11T09:41:40;7.90;99.90
15707;DHT22;7953;54.302;10.128;2023-02-11T09:44:15;8.00;99.90
15707;DHT22;7953;54.302;10.128;2023-02-11T09:46:49;8.10;99.90
15707;DHT22;7953;54.302;10.128;2023-02-11T09:49:22;8.10;99.90
15707;DHT22;7953;54.302;10.128;2023-02-11T09:51:55;8.10;99.90
15707;DHT22;7953;54.302;10.128;2023-02-11T09:54:29;8.20;99.90
15707;DHT22;7953;54.302;10.128;2023-02-11T09:56:57;8.20;99.90
15707;DHT22;7953;54.302;10.128;2023-02-11T09:59:24;8.20;99.90
15707;DHT22;7953;54.302;10.128;2023-02-11T10:01:55;8.20;99.90
15707;DHT22;7953;54.302;10.128;2023-02-11T10:04:38;8.20;99.90
15707;DHT22;7953;54.302;10.128;2023-02-11T10:07:18;8.20;99.90
15707;DHT22;7953;54.302;10.128;2023-02-11T10:09:55;8.20;99.90
15707;DHT22;7953;54.302;10.128;2023-02-11T10:12:54;8.20;99.90
15707;DHT22;7953;54.302;10.128;2023-02-11T10:15:32;8.30;99.90
15707;DHT22;7953;54.302;10.128;2023-02-11T10:18:13;8.30;99.90
15707;DHT22;7953;54.302;10.128;2023-02-11T10:20:47;8.40;99.90
15707;DHT22;7953;54.302;10.128;2023-02-11T10:23:20;8.40;99.90
15707;DHT22;7953;54.302;10.128;2023-02-11T10:25:51;8.40;99.90
15707;DHT22;7953;54.302;10.128;2023-02-11T10:28:21;8.40;99.90
15707;DHT22;7953;54.302;10.128;2023-02-11T10:30:56;8.40;99.90
15707;DHT22;7953;54.302;10.128;2023-02-11T10:33:26;8.40;99.90
15707;DHT22;7953;54.302;10.128;2023-02-11T10:35:55;8.40;99.90
15707;DHT22;7953;54.302;10.128;2023-02-11T10:38:24;8.40;99.90
15707;DHT22;7953;54.302;10.128;2023-02-11T10:40:51;8.50;99.90
15707;DHT22;7953;54.302;10.128;2023-02-11T10:43:21;8.50;99.90
15707;DHT22;7953;54.302;10.128;2023-02-11T10:45:50;8.50;99.90
15707;DHT22;7953;54.302;10.128;2023-02-11T10:48:40;8.50;99.90
15707;DHT22;7953;54.302;10.128;2023-02-11T10:51:15;8.50;99.90
15707;DHT22;7953;54.302;10.128;2023-02-11T10:53:44;8.60;99.90
15707;DHT22;7953;54.302;10.128;2023-02-11T10:56:22;8.60;99.90
15707;DHT22;7953;54.302;10.128;2023-02-11T10:58:56;8.50;99.90
15707;DHT22;7953;54.302;10.128;2023-02-11T11:01:41;8.50;99.90
15707;DHT22;7953;54.302;10.128;2023-02-11T11:04:36;8.50;99.90
15707;DHT22;7953;54.302;10.128;2023-02-11T11:07:17;8.50;99.90
15707;DHT22;7953;54.302;10.128;2023-02-11T11:09:48;8.50;99.90
15707;DHT22;7953;54.302;10.128;2023-02-11T11:12:31;8.60;99.90
15707;DHT22;7953;54.302;10.128;2023-02-11T11:15:02;8.60;99.90
15707;DHT22;7953;54.302;10.128;2023-02-11T11:17:39;8.60;99.90
15707;DHT22;7953;54.302;10.128;2023-02-11T11:20:20;8.60;99.90
15707;DHT22;7953;54.302;10.128;2023-02-11T11:22:48;8.70;99.90
15707;DHT22;7953;54.302;10.128;2023-02-11T11:25:24;8.70;99.90
15707;DHT22;7953;54.302;10.128;2023-02-11T11:27:55;8.70;99.90
15707;DHT22;7953;54.302;10.128;2023-02-11T11:30:26;8.70;99.90
15707;DHT22;7953;54.302;10.128;2023-02-11T11:32:54;8.70;99.90
15707;DHT22;7953;54.302;10.128;2023-02-11T11:35:24;8.80;99.90
15707;DHT22;7953;54.302;10.128;2023-02-11T11:37:56;8.80;99.90
15707;DHT22;7953;54.302;10.128;2023-02-11T11:40:27;8.80;99.90
15707;DHT22;7953;54.302;10.128;2023-02-11T11:43:06;8.80;99.90
15707;DHT22;7953;54.302;10.128;2023-02-11T11:45:52;8.90;99.90
15707;DHT22;7953;54.302;10.128;2023-02-11T11:48:21;8.90;99.90
15707;DHT22;7953;54.302;10.128;2023-02-11T11:50:51;8.90;99.90
15707;DHT22;7953;54.302;10.128;2023-02-11T11:53:23;9.00;99.90
15707;DHT22;7953;54.302;10.128;2023-02-11T11:55:58;9.00;99.90
15707;DHT22;7953;54.302;10.128;2023-02-11T11:58:27;9.00;99.90
15707;DHT22;7953;54.302;10.128;2023-02-11T12:01:00;9.00;99.90
15707;DHT22;7953;54.302;10.128;2023-02-11T12:04:03;9.10;99.90
15707;DHT22;7953;54.302;10.128;2023-02-11T12:06:41;9.00;99.90
15707;DHT22;7953;54.302;10.128;2023-02-11T12:09:19;9.00;99.90
15707;DHT22;7953;54.302;10.128;2023-02-11T12:12:08;9.10;99.90
15707;DHT22;7953;54.302;10.128;2023-02-11T12:14:44;9.10;99.90
15707;DHT22;7953;54.302;10.128;2023-02-11T12:17:20;9.10;99.90
15707;DHT22;7953;54.302;10.128;2023-02-11T12:20:10;9.10;99.90
15707;DHT22;7953;54.302;10.128;2023-02-11T12:22:46;9.10;99.90
15707;DHT22;7953;54.302;10.128;2023-02-11T12:25:27;9.10;99.90
15707;DHT22;7953;54.302;10.128;2023-02-11T12:28:06;9.20;99.90
15707;DHT22;7953;54.302;10.128;2023-02-11T12:30:49;9.20;99.90
15707;DHT22;7953;54.302;10.128;2023-02-11T12:33:29;9.30;99.90
15707;DHT22;7953;54.302;10.128;2023-02-11T12:36:01;9.30;99.90
15707;DHT22;7953;54.302;10.128;2023-02-11T12:38:39;9.20;99.90
15707;DHT22;7953;54.302;10.128;2023-02-11T12:41:26;9.30;99.90
15707;DHT22;7953;54.302;10.128;2023-02-11T12:44:22;9.40;99.90
15707;DHT22;7953;54.302;10.128;2023-02-11T12:46:56;9.40;99.90
15707;DHT22;7953;54.302;10.128;2023-02-11T12:49:41;9.40;99.90
15707;DHT22;7953;54.302;10.128;2023-02-11T12:52:26;9.40;99.90
15707;DHT22;7953;54.302;10.128;2023-02-11T12:54:58;9.40;99.90
15707;DHT22;7953;54.302;10.128;2023-02-11T12:57:28;9.40;99.90
15707;DHT22;7953;54.302;10.128;2023-02-11T13:00:04;9.40;99.90
15707;DHT22;7953;54.302;10.128;2023-02-11T13:02:40;9.30;99.90
15707;DHT22;7953;54.302;10.128;2023-02-11T13:05:21;9.30;99.90
15707;DHT22;7953;54.302;10.128;2023-02-11T13:07:50;9.30;99.90
15707;DHT22;7953;54.302;10.128;2023-02-11T13:10:25;9.30;99.90
15707;DHT22;7953;54.302;10.128;2023-02-11T13:12:54;9.30;99.90
15707;DHT22;7953;54.302;10.128;2023-02-11T13:15:42;9.30;99.90
15707;DHT22;7953;54.302;10.128;2023-02-11T13:18:18;9.30;99.90
15707;DHT22;7953;54.302;10.128;2023-02-11T13:20:52;9.20;99.90
15707;DHT22;7953;54.302;10.128;2023-02-11T13:23:24;9.20;99.90
15707;DHT22;7953;54.302;10.128;2023-02-11T13:25:56;9.20;99.90
15707;DHT22;7953;54.302;10.128;2023-02-11T13:28:31;9.20;99.90
15707;DHT22;7953;54.302;10.128;2023-02-11T13:31:06;9.20;99.90
15707;DHT22;7953;54.302;10.128;2023-02-11T13:33:35;9.20;99.90
15707;DHT22;7953;54.302;10.128;2023-02-11T13:36:16;9.20;99.90
15707;DHT22;7953;54.302;10.128;2023-02-11T13:39:04;9.20;99.90
15707;DHT22;7953;54.302;10.128;2023-02-11T13:41:35;9.20;99.90
15707;DHT22;7953;54.302;10.128;2023-02-11T13:44:16;9.20;99.90
15707;DHT22;7953;54.302;10.128;2023-02-11T13:46:54;9.20;99.90
15707;DHT22;7953;54.302;10.128;2023-02-11T13:49:26;9.10;99.90
15707;DHT22;7953;54.302;10.128;2023-02-11T13:51:55;9.10;99.90
15707;DHT22;7953;54.302;10.128;2023-02-11T13:54:30;9.10;99.90
15707;DHT22;7953;54.302;10.128;2023-02-11T13:57:26;9.20;99.90
15707;DHT22;7953;54.302;10.128;2023-02-11T13:59:56;9.10;99.90
15707;DHT22;7953;54.302;10.128;2023-02-11T14:02:30;9.10;99.90
15707;DHT22;7953;54.302;10.128;2023-02-11T14:05:21;9.10;99.90
15707;DHT22;7953;54.302;10.128;2023-02-11T14:08:18;9.10;99.90
15707;DHT22;7953;54.302;10.128;2023-02-11T14:11:05;9.20;99.90
15707;DHT22;7953;54.302;10.128;2023-02-11T14:14:01;9.20;99.90
15707;DHT22;7953;54.302;10.128;2023-02-11T14:16:28;9.20;99.90
15707;DHT22;7953;54.302;10.128;2023-02-11T14:19:00;9.20;99.90
15707;DHT22;7953;54.302;10.128;2023-02-11T14:21:35;9.10;99.90
15707;DHT22;7953;54.302;10.128;2023-02-11T14:27:34;9.10;99.90
15707;DHT22;7953;54.302;10.128;2023-02-11T14:30:25;9.10;99.90
15707;DHT22;7953;54.302;10.128;2023-02-11T14:33:37;9.10;99.90
15707;DHT22;7953;54.302;10.128;2023-02-11T14:36:18;9.10;99.90
15707;DHT22;7953;54.302;10.128;2023-02-11T14:38:58;9.10;99.90
15707;DHT22;7953;54.302;10.128;2023-02-11T14:41:27;9.10;99.90
15707;DHT22;7953;54.302;10.128;2023-02-11T14:43:57;9.10;99.90
15707;DHT22;7953;54.302;10.128;2023-02-11T14:46:26;9.10;99.90
15707;DHT22;7953;54.302;10.128;2023-02-11T14:48:57;9.00;99.90
15707;DHT22;7953;54.302;10.128;2023-02-11T14:51:28;9.00;99.90
15707;DHT22;7953;54.302;10.128;2023-02-11T14:54:02;9.10;99.90
15707;DHT22;7953;54.302;10.128;2023-02-11T14:56:30;9.10;99.90
15707;DHT22;7953;54.302;10.128;2023-02-11T14:58:59;9.10;99.90
15707;DHT22;7953;54.302;10.128;2023-02-11T15:01:29;9.10;99.90
15707;DHT22;7953;54.302;10.128;2023-02-11T15:03:56;9.10;99.90
15707;DHT22;7953;54.302;10.128;2023-02-11T15:06:29;9.10;99.90
15707;DHT22;7953;54.302;10.128;2023-02-11T15:08:59;9.10;99.90
15707;DHT22;7953;54.302;10.128;2023-02-11T15:11:28;9.10;99.90
15707;DHT22;7953;54.302;10.128;2023-02-11T15:13:58;9.10;99.90
15707;DHT22;7953;54.302;10.128;2023-02-11T15:16:27;9.10;99.90
15707;DHT22;7953;54.302;10.128;2023-02-11T15:19:04;9.10;99.90
15707;DHT22;7953;54.302;10.128;2023-02-11T15:21:34;9.10;99.90
15707;DHT22;7953;54.302;10.128;2023-02-11T15:24:04;9.10;99.90
15707;DHT22;7953;54.302;10.128;2023-02-11T15:26:32;9.10;99.90
15707;DHT22;7953;54.302;10.128;2023-02-11T15:28:59;9.10;99.90
15707;DHT22;7953;54.302;10.128;2023-02-11T15:31:26;9.10;99.90
15707;DHT22;7953;54.302;10.128;2023-02-11T15:33:54;9.10;99.90
15707;DHT22;7953;54.302;10.128;2023-02-11T15:36:23;9.10;99.90
15707;DHT22;7953;54.302;10.128;2023-02-11T15:39:26;9.10;99.90
15707;DHT22;7953;54.302;10.128;2023-02-11T15:41:54;9.10;99.90
15707;DHT22;7953;54.302;10.128;2023-02-11T15:44:29;9.00;99.90
15707;DHT22;7953;54.302;10.128;2023-02-11T15:46:56;9.00;99.90
15707;DHT22;7953;54.302;10.128;2023-02-11T15:49:23;9.00;99.90
15707;DHT22;7953;54.302;10.128;2023-02-11T15:51:51;9.00;99.90
15707;DHT22;7953;54.302;10.128;2023-02-11T15:54:22;9.00;99.90
15707;DHT22;7953;54.302;10.128;2023-02-11T15:56:53;8.90;99.90
15707;DHT22;7953;54.302;10.128;2023-02-11T15:59:25;8.90;99.90
15707;DHT22;7953;54.302;10.128;2023-02-11T16:01:53;8.80;99.90
15707;DHT22;7953;54.302;10.128;2023-02-11T16:04:22;8.80;99.90
15707;DHT22;7953;54.302;10.128;2023-02-11T16:06:50;8.70;99.90
15707;DHT22;7953;54.302;10.128;2023-02-11T16:09:30;8.70;99.90
15707;DHT22;7953;54.302;10.128;2023-02-11T16:11:59;8.60;99.90
15707;DHT22;7953;54.302;10.128;2023-02-11T16:14:30;8.60;99.90
15707;DHT22;7953;54.302;10.128;2023-02-11T16:17:00;8.60;99.90
15707;DHT22;7953;54.302;10.128;2023-02-11T16:19:29;8.70;99.90